Time;durP1;ratioP1;P1;durP2;ratioP2;P2;SDS_P1;SDS_P2;PMS_P1;PMS_P2;Temp;Humidity;BMP_temperature;BMP_pressure;BME280_temperature;BME280_humidity;BME280_pressure;Samples;Min_cycle;Max_cycle;Signal;HPM_P1;HPM_P2
2021/03/11 00:01:24;;;;;;;40.25;26.02;;;6.10;99.90;;;;;;4141807;28;20022;-75
2021/03/11 00:03:26;;;;;;;37.40;22.42;;;6.10;99.90;;;;;;4136543;28;20065;-75
2021/03/11 00:05:26;;;;;;;42.50;22.10;;;6.10;99.90;;;;;;4134100;28;20037;-75
2021/03/11 00:07:27;;;;;;;41.40;22.20;;;6.10;99.90;;;;;;4144032;28;20501;-75
2021/03/11 00:09:27;;;;;;;38.15;22.67;;;6.20;99.90;;;;;;4135666;28;20402;-75
2021/03/11 00:11:28;;;;;;;46.70;27.52;;;6.20;99.90;;;;;;4172084;28;20506;-75
2021/03/11 00:13:29;;;;;;;40.17;24.48;;;6.20;99.90;;;;;;4157258;28;20042;-75
2021/03/11 00:15:31;;;;;;;38.58;23.67;;;6.20;99.90;;;;;;4143653;28;20129;-75
2021/03/11 00:17:32;;;;;;;40.85;24.38;;;6.20;99.90;;;;;;4142180;28;20054;-75
2021/03/11 00:19:33;;;;;;;36.58;22.35;;;6.20;99.90;;;;;;4137930;28;20084;-76
2021/03/11 00:21:34;;;;;;;29.60;18.38;;;6.20;99.90;;;;;;4144526;28;20030;-76
2021/03/11 00:23:35;;;;;;;35.55;22.80;;;6.20;99.90;;;;;;4144646;28;20034;-75
2021/03/11 00:25:36;;;;;;;39.30;21.63;;;6.20;99.90;;;;;;4138300;28;20041;-75
2021/03/11 00:27:38;;;;;;;32.30;19.38;;;6.20;99.90;;;;;;4139810;28;20038;-76
2021/03/11 00:29:38;;;;;;;38.58;21.08;;;6.20;99.90;;;;;;4145085;28;20761;-76
2021/03/11 00:31:39;;;;;;;31.42;20.10;;;6.20;99.90;;;;;;4146739;28;20033;-76
2021/03/11 00:33:39;;;;;;;33.40;21.77;;;6.30;99.90;;;;;;4147060;28;20087;-76
2021/03/11 00:35:40;;;;;;;26.08;18.30;;;6.40;99.90;;;;;;4132928;28;20865;-75
2021/03/11 00:37:42;;;;;;;28.67;17.88;;;6.40;99.90;;;;;;4170386;28;20041;-75
2021/03/11 00:39:42;;;;;;;27.90;17.42;;;6.40;99.90;;;;;;4143675;28;20484;-76
2021/03/11 00:41:44;;;;;;;33.78;21.60;;;6.50;99.90;;;;;;4141736;28;20049;-76
2021/03/11 00:43:44;;;;;;;29.73;20.35;;;6.50;99.90;;;;;;4146234;28;20417;-75
2021/03/11 00:45:47;;;;;;;28.70;19.83;;;6.50;99.90;;;;;;4166901;28;20037;-76
2021/03/11 00:47:48;;;;;;;32.70;20.85;;;6.50;99.90;;;;;;4131374;28;20056;-76
2021/03/11 00:49:48;;;;;;;25.70;16.13;;;6.60;99.90;;;;;;4134406;28;20773;-75
2021/03/11 00:51:49;;;;;;;28.17;18.38;;;6.60;99.90;;;;;;4136406;28;20072;-76
2021/03/11 00:53:49;;;;;;;25.30;18.38;;;6.70;99.90;;;;;;4141845;28;20088;-76
2021/03/11 00:55:50;;;;;;;30.08;19.50;;;6.70;99.90;;;;;;4144249;28;20048;-75
2021/03/11 00:57:50;;;;;;;26.88;19.35;;;6.80;99.90;;;;;;4135028;28;20427;-76
2021/03/11 00:59:51;;;;;;;29.73;21.10;;;6.80;99.90;;;;;;4145672;28;20061;-75
2021/03/11 01:01:52;;;;;;;22.13;16.70;;;6.80;99.90;;;;;;4146775;28;20088;-75
2021/03/11 01:03:52;;;;;;;24.52;16.90;;;6.80;99.90;;;;;;4145170;28;20071;-74
2021/03/11 01:05:53;;;;;;;24.75;16.35;;;6.90;99.90;;;;;;4139675;28;20034;-75
2021/03/11 01:07:54;;;;;;;29.63;17.42;;;6.90;99.90;;;;;;4147396;28;20034;-75
2021/03/11 01:09:57;;;;;;;26.92;16.75;;;6.90;99.90;;;;;;4143108;28;20607;-76
2021/03/11 01:11:58;;;;;;;24.08;15.20;;;6.90;99.90;;;;;;4138109;28;20092;-75
2021/03/11 01:13:59;;;;;;;23.45;16.13;;;6.90;99.90;;;;;;4145576;28;20089;-75
2021/03/11 01:16:00;;;;;;;25.73;17.70;;;6.90;99.90;;;;;;4144252;28;20042;-75
2021/03/11 01:18:00;;;;;;;28.33;19.08;;;6.90;99.90;;;;;;4145939;28;20038;-77
2021/03/11 01:20:03;;;;;;;28.92;18.35;;;6.90;99.90;;;;;;4144375;28;20041;-78
2021/03/11 01:22:04;;;;;;;28.33;18.52;;;6.90;99.90;;;;;;4142770;28;20042;-75
2021/03/11 01:24:05;;;;;;;31.17;18.88;;;6.90;99.90;;;;;;4136144;28;20034;-75
2021/03/11 01:26:06;;;;;;;27.30;19.60;;;6.80;99.90;;;;;;4140559;28;20608;-76
2021/03/11 01:28:06;;;;;;;24.08;16.95;;;6.80;99.90;;;;;;4139677;28;20034;-76
2021/03/11 01:30:08;;;;;;;34.30;21.42;;;6.80;99.90;;;;;;4176093;28;20112;-76
2021/03/11 01:32:09;;;;;;;25.85;16.95;;;6.80;99.90;;;;;;4144561;28;20034;-75
2021/03/11 01:34:09;;;;;;;30.70;19.25;;;6.80;99.90;;;;;;4142103;28;20163;-76
2021/03/11 01:36:10;;;;;;;21.42;14.45;;;6.70;99.90;;;;;;4169407;28;20037;-74
2021/03/11 01:38:10;;;;;;;31.23;18.55;;;6.70;99.90;;;;;;4141467;28;20050;-75
2021/03/11 01:40:11;;;;;;;36.10;22.27;;;6.70;99.90;;;;;;4142431;28;20048;-75
2021/03/11 01:42:12;;;;;;;34.75;20.90;;;6.70;99.90;;;;;;4138253;28;20092;-75
2021/03/11 01:44:12;;;;;;;30.95;19.33;;;6.70;99.90;;;;;;4143434;28;20509;-75
2021/03/11 01:46:13;;;;;;;28.48;17.35;;;6.80;99.90;;;;;;4143958;28;20030;-75
2021/03/11 01:48:14;;;;;;;29.67;19.50;;;6.80;99.90;;;;;;4138718;28;20056;-76
2021/03/11 01:50:14;;;;;;;35.42;20.95;;;6.80;99.90;;;;;;4141378;28;20045;-75
2021/03/11 01:52:15;;;;;;;22.80;15.05;;;6.80;99.90;;;;;;4144151;28;20405;-75
2021/03/11 01:54:18;;;;;;;27.73;16.92;;;6.80;99.90;;;;;;4144451;28;20055;-76
2021/03/11 01:56:19;;;;;;;27.83;17.10;;;6.80;99.90;;;;;;4134513;28;20033;-75
2021/03/11 01:58:20;;;;;;;20.40;13.48;;;6.90;99.90;;;;;;4144784;28;20457;-75
2021/03/11 02:00:21;;;;;;;32.30;20.20;;;6.90;99.90;;;;;;4146014;28;20329;-76
2021/03/11 02:02:22;;;;;;;34.80;19.85;;;6.90;99.90;;;;;;4142600;28;20033;-76
2021/03/11 02:04:22;;;;;;;25.55;17.83;;;6.90;99.90;;;;;;4144766;28;20026;-76
2021/03/11 02:06:23;;;;;;;26.65;17.58;;;6.90;99.90;;;;;;4141734;28;20117;-75
2021/03/11 02:08:24;;;;;;;22.38;15.13;;;6.90;99.90;;;;;;4143145;28;20099;-74
2021/03/11 02:10:26;;;;;;;29.13;19.13;;;7.00;99.90;;;;;;4140672;28;20113;-75
2021/03/11 02:12:45;;;;;;;27.40;15.30;;;7.00;99.90;;;;;;4140388;28;20052;-76
2021/03/11 02:14:59;;;;;;;23.98;15.73;;;7.00;99.90;;;;;;4141729;28;20072;-75
2021/03/11 02:17:03;;;;;;;21.63;14.88;;;7.00;99.90;;;;;;4139753;28;20084;-75
2021/03/11 02:19:41;;;;;;;16.58;11.90;;;7.10;99.90;;;;;;4175224;28;20468;-75
2021/03/11 02:21:50;;;;;;;19.48;12.50;;;7.00;99.90;;;;;;4174546;28;20036;-75
2021/03/11 02:24:10;;;;;;;22.05;15.63;;;7.00;99.90;;;;;;4150545;28;20067;-74
2021/03/11 02:26:28;;;;;;;27.45;17.23;;;7.00;99.90;;;;;;4140306;28;20118;-75
2021/03/11 02:28:36;;;;;;;20.80;14.10;;;7.00;99.90;;;;;;4176771;28;20060;-75
2021/03/11 02:30:38;;;;;;;22.83;16.00;;;7.10;99.90;;;;;;4139601;28;20080;-75
2021/03/11 02:32:41;;;;;;;27.20;16.30;;;7.10;99.90;;;;;;4142884;28;20027;-76
2021/03/11 02:34:46;;;;;;;;;;;7.00;99.90;;;;;;4144194;28;20033;-75
2021/03/11 02:36:49;;;;;;;21.40;14.90;;;7.10;99.90;;;;;;4133460;28;19921;-76
2021/03/11 02:38:51;;;;;;;;;;;7.10;99.90;;;;;;4142248;28;20038;-75
2021/03/11 02:40:57;;;;;;;22.25;15.45;;;7.10;99.90;;;;;;4143236;28;19913;-76
2021/03/11 02:43:02;;;;;;;17.23;12.10;;;7.20;99.90;;;;;;4142029;28;20034;-74
2021/03/11 02:45:05;;;;;;;21.77;14.35;;;7.10;99.90;;;;;;4164667;28;20064;-75
2021/03/11 02:47:06;;;;;;;17.23;12.75;;;7.20;99.90;;;;;;4171469;28;20036;-75
2021/03/11 02:49:08;;;;;;;20.70;13.15;;;7.20;99.90;;;;;;4145139;28;20033;-75
2021/03/11 02:51:10;;;;;;;19.13;13.30;;;7.20;99.90;;;;;;4177275;28;20029;-75
2021/03/11 02:53:12;;;;;;;17.23;12.40;;;7.30;99.90;;;;;;4141066;28;20463;-75
2021/03/11 02:55:13;;;;;;;19.23;13.68;;;7.30;99.90;;;;;;4144844;28;20022;-75
2021/03/11 02:57:16;;;;;;;19.20;14.02;;;7.30;99.90;;;;;;4140831;28;20030;-75
2021/03/11 02:59:17;;;;;;;;;;;7.30;99.90;;;;;;4144148;28;20107;-75
2021/03/11 03:01:20;;;;;;;14.55;11.82;;;7.40;99.90;;;;;;4143881;28;19920;-74
2021/03/11 03:03:21;;;;;;;11.40;8.52;;;7.40;99.90;;;;;;4145153;28;20038;-73
2021/03/11 03:05:25;;;;;;;18.33;12.23;;;7.40;99.90;;;;;;4141352;28;20704;-76
2021/03/11 03:07:27;;;;;;;15.52;10.57;;;7.40;99.90;;;;;;4142582;28;20037;-75
2021/03/11 03:09:29;;;;;;;16.98;12.80;;;7.30;99.90;;;;;;4142862;28;20068;-75
2021/03/11 03:11:31;;;;;;;22.58;16.25;;;7.30;99.90;;;;;;4140720;28;20034;-76
2021/03/11 03:13:32;;;;;;;15.55;11.65;;;7.30;99.90;;;;;;4144008;28;20057;-76
2021/03/11 03:15:34;;;;;;;20.73;15.50;;;7.30;99.90;;;;;;4175392;28;20025;-77
2021/03/11 03:17:35;;;;;;;19.52;14.88;;;7.30;99.90;;;;;;4142890;28;20080;-78
2021/03/11 03:19:38;;;;;;;20.42;14.40;;;7.30;99.90;;;;;;4135629;28;20026;-77
2021/03/11 03:21:42;;;;;;;20.05;15.25;;;7.30;99.90;;;;;;4142771;28;20034;-77
2021/03/11 03:23:43;;;;;;;23.52;16.58;;;7.20;99.90;;;;;;4141535;28;20065;-77
2021/03/11 03:25:46;;;;;;;17.65;13.38;;;7.30;99.90;;;;;;4137166;28;20102;-78
2021/03/11 03:27:47;;;;;;;24.80;16.75;;;7.30;99.90;;;;;;4130775;28;20126;-78
2021/03/11 03:29:48;;;;;;;23.05;15.55;;;7.30;99.90;;;;;;4131909;28;20032;-78
2021/03/11 03:31:49;;;;;;;21.88;14.60;;;7.30;99.90;;;;;;4143941;28;20036;-78
2021/03/11 03:33:49;;;;;;;21.08;16.80;;;7.30;99.90;;;;;;4142713;28;20608;-77
2021/03/11 03:35:50;;;;;;;20.05;13.43;;;7.40;99.90;;;;;;4142119;28;20088;-76
2021/03/11 03:37:52;;;;;;;21.55;14.18;;;7.40;99.90;;;;;;4143847;28;20053;-76
2021/03/11 03:39:52;;;;;;;21.85;15.45;;;7.50;99.90;;;;;;4142583;28;20034;-77
2021/03/11 03:41:58;;;;;;;16.30;11.48;;;7.50;99.90;;;;;;4166314;28;20169;-76
2021/03/11 03:43:59;;;;;;;22.27;14.00;;;7.50;99.90;;;;;;4143653;28;20477;-76
2021/03/11 03:46:12;;;;;;;15.35;11.13;;;7.50;99.90;;;;;;4174378;28;20057;-77
2021/03/11 03:48:16;;;;;;;20.67;15.80;;;7.60;99.90;;;;;;4145314;28;20104;-77
2021/03/11 03:50:19;;;;;;;24.42;16.92;;;7.60;99.90;;;;;;4141791;28;20034;-77
2021/03/11 03:52:21;;;;;;;26.75;18.35;;;7.60;99.90;;;;;;4176831;28;20082;-77
2021/03/11 03:54:26;;;;;;;21.27;16.63;;;7.60;99.90;;;;;;4145169;28;20389;-77
2021/03/11 03:56:55;;;;;;;20.92;14.82;;;7.60;99.90;;;;;;4143757;28;20065;-77
2021/03/11 03:59:05;;;;;;;21.08;15.45;;;7.60;99.90;;;;;;4160293;28;20030;-77
2021/03/11 04:01:07;;;;;;;24.45;17.48;;;7.70;99.90;;;;;;4141224;28;20037;-78
2021/03/11 04:03:08;;;;;;;24.70;16.27;;;7.70;99.90;;;;;;4137560;28;20397;-77
2021/03/11 04:05:10;;;;;;;27.65;18.05;;;7.70;99.90;;;;;;4145126;28;20034;-76
2021/03/11 04:07:14;;;;;;;28.17;17.80;;;7.80;99.90;;;;;;4143124;28;20034;-76
2021/03/11 04:09:15;;;;;;;21.13;14.45;;;7.80;99.90;;;;;;4142496;28;20053;-76
2021/03/11 04:11:19;;;;;;;22.42;15.77;;;7.80;99.90;;;;;;4143157;28;20030;-77
2021/03/11 04:13:21;;;;;;;23.83;17.65;;;7.90;99.90;;;;;;4142639;28;20057;-77
2021/03/11 04:15:22;;;;;;;26.60;17.90;;;7.90;99.90;;;;;;4142872;28;20058;-77
2021/03/11 04:17:24;;;;;;;19.92;14.65;;;7.90;99.90;;;;;;4142113;28;20052;-76
2021/03/11 04:19:25;;;;;;;21.55;16.83;;;7.90;99.90;;;;;;4134351;28;20030;-77
2021/03/11 04:21:29;;;;;;;25.30;16.92;;;8.00;99.90;;;;;;4141987;28;20056;-77
2021/03/11 04:23:29;;;;;;;;;;;8.00;99.90;;;;;;4141413;28;20037;-77
2021/03/11 04:25:30;;;;;;;20.67;13.85;;;8.10;99.90;;;;;;4137586;28;19943;-77
2021/03/11 04:27:31;;;;;;;21.42;16.27;;;8.20;99.90;;;;;;4134081;28;20481;-77
2021/03/11 04:29:32;;;;;;;19.60;15.85;;;8.20;99.90;;;;;;4140643;28;20048;-77
2021/03/11 04:31:34;;;;;;;20.10;16.15;;;8.30;99.90;;;;;;4138828;28;20038;-77
2021/03/11 04:33:35;;;;;;;16.95;11.55;;;8.30;99.90;;;;;;4141713;28;20077;-77
2021/03/11 04:35:36;;;;;;;23.88;16.70;;;8.30;99.90;;;;;;4140763;28;20077;-76
2021/03/11 04:37:39;;;;;;;22.08;15.45;;;8.40;99.90;;;;;;4140444;28;20042;-76
2021/03/11 04:39:41;;;;;;;;;;;8.40;99.90;;;;;;4142167;28;20048;-77
2021/03/11 04:41:42;;;;;;;21.20;16.38;;;8.30;99.90;;;;;;4138948;28;19922;-77
2021/03/11 04:43:43;;;;;;;19.38;14.85;;;8.40;99.90;;;;;;4139891;28;20029;-76
2021/03/11 04:45:45;;;;;;;23.73;17.67;;;8.40;99.90;;;;;;4142624;28;20493;-77
2021/03/11 04:47:47;;;;;;;23.33;16.98;;;8.40;99.90;;;;;;4143391;28;20037;-77
2021/03/11 04:49:49;;;;;;;24.27;18.53;;;8.40;99.90;;;;;;4142168;28;20053;-77
2021/03/11 04:51:51;;;;;;;23.33;18.75;;;8.40;99.90;;;;;;4141161;28;20680;-77
2021/03/11 04:53:53;;;;;;;24.65;17.70;;;8.40;99.90;;;;;;4175766;28;20036;-76
2021/03/11 04:55:54;;;;;;;21.00;15.00;;;8.50;99.90;;;;;;4144780;28;20053;-76
2021/03/11 04:57:56;;;;;;;22.73;16.50;;;8.50;99.90;;;;;;4139031;28;20829;-77
2021/03/11 04:59:58;;;;;;;17.15;13.48;;;8.60;99.90;;;;;;4141851;28;20062;-76
2021/03/11 05:02:03;;;;;;;21.33;15.02;;;8.70;99.90;;;;;;4147475;28;20041;-76
2021/03/11 05:04:06;;;;;;;23.45;17.98;;;8.70;99.90;;;;;;4146094;28;20038;-76
2021/03/11 05:06:06;;;;;;;17.48;14.27;;;8.80;99.90;;;;;;4146175;28;20045;-75
2021/03/11 05:08:09;;;;;;;21.15;17.00;;;8.90;99.90;;;;;;4147820;28;20030;-76
2021/03/11 05:10:10;;;;;;;18.65;15.85;;;9.00;99.90;;;;;;4142073;28;20113;-76
2021/03/11 05:12:11;;;;;;;20.83;16.05;;;9.00;99.90;;;;;;4147096;28;20065;-76
2021/03/11 05:14:11;;;;;;;15.80;12.32;;;9.00;99.90;;;;;;4177759;28;20423;-76
2021/03/11 05:16:12;;;;;;;19.88;14.77;;;9.00;99.90;;;;;;4144639;28;20034;-76
2021/03/11 05:18:13;;;;;;;24.95;16.42;;;9.00;99.90;;;;;;4144884;28;20036;-75
2021/03/11 05:20:14;;;;;;;22.33;17.02;;;9.10;99.90;;;;;;4145906;28;20038;-75
2021/03/11 05:22:15;;;;;;;19.95;15.30;;;9.00;99.90;;;;;;4171788;28;20123;-76
2021/03/11 05:24:15;;;;;;;19.75;13.95;;;9.00;99.90;;;;;;4147217;28;20497;-76
2021/03/11 05:26:16;;;;;;;19.90;15.07;;;9.00;99.90;;;;;;4143878;28;20164;-75
2021/03/11 05:28:17;;;;;;;21.48;15.52;;;9.00;99.90;;;;;;4141795;28;20033;-76
2021/03/11 05:30:17;;;;;;;22.02;16.08;;;8.90;99.90;;;;;;4137997;28;20038;-75
2021/03/11 05:32:18;;;;;;;22.48;17.55;;;8.80;99.90;;;;;;4138258;28;20595;-76
2021/03/11 05:34:18;;;;;;;25.70;15.32;;;8.80;99.90;;;;;;4141636;28;20068;-76
2021/03/11 05:36:19;;;;;;;20.80;14.43;;;8.80;99.90;;;;;;4142147;28;20060;-76
2021/03/11 05:38:20;;;;;;;22.77;15.23;;;8.80;99.90;;;;;;4140107;28;20057;-77
2021/03/11 05:40:22;;;;;;;22.33;14.18;;;8.70;99.90;;;;;;4142729;28;20042;-77
2021/03/11 05:42:23;;;;;;;27.08;18.38;;;8.80;99.90;;;;;;4137234;28;20084;-77
2021/03/11 05:44:24;;;;;;;24.48;16.58;;;8.70;99.90;;;;;;4133487;28;20037;-77
2021/03/11 05:46:26;;;;;;;25.55;16.02;;;8.70;99.90;;;;;;4141204;28;20038;-77
2021/03/11 05:48:27;;;;;;;22.98;14.60;;;8.70;99.90;;;;;;4143438;28;20109;-77
2021/03/11 05:50:28;;;;;;;24.85;17.40;;;8.70;99.90;;;;;;4142367;28;20089;-77
2021/03/11 05:52:30;;;;;;;25.45;16.38;;;8.70;99.90;;;;;;4146321;28;20034;-77
2021/03/11 05:54:32;;;;;;;21.80;14.98;;;8.70;99.90;;;;;;4142897;28;20061;-78
2021/03/11 05:56:34;;;;;;;18.27;14.05;;;8.70;99.90;;;;;;4144033;28;20528;-78
2021/03/11 05:58:34;;;;;;;28.85;16.30;;;8.70;99.90;;;;;;4141955;28;20065;-77
2021/03/11 06:00:35;;;;;;;24.55;15.68;;;8.70;99.90;;;;;;4139760;28;20068;-77
2021/03/11 06:02:37;;;;;;;24.50;17.05;;;8.70;99.90;;;;;;4144752;28;20027;-77
2021/03/11 06:04:39;;;;;;;24.92;17.83;;;8.70;99.90;;;;;;4144032;28;20557;-77
2021/03/11 06:06:42;;;;;;;16.63;10.55;;;8.70;99.90;;;;;;4141292;28;20025;-76
2021/03/11 06:08:43;;;;;;;22.17;14.45;;;8.80;99.90;;;;;;4145207;28;20038;-77
2021/03/11 06:10:44;;;;;;;17.75;11.48;;;8.80;99.90;;;;;;4171620;28;20033;-76
2021/03/11 06:12:46;;;;;;;13.27;9.65;;;8.90;99.90;;;;;;4143093;28;20485;-76
2021/03/11 06:14:50;;;;;;;21.33;14.18;;;9.00;99.90;;;;;;4144681;28;20026;-77
2021/03/11 06:16:57;;;;;;;24.92;15.10;;;9.00;99.90;;;;;;4144488;28;20145;-76
2021/03/11 06:18:58;;;;;;;11.88;8.82;;;9.00;99.90;;;;;;4143453;28;20070;-76
2021/03/11 06:21:00;;;;;;;19.42;12.02;;;9.10;99.90;;;;;;4144081;28;20390;-76
2021/03/11 06:23:01;;;;;;;21.80;14.15;;;9.20;99.90;;;;;;4174628;28;20041;-78
2021/03/11 06:25:04;;;;;;;19.23;13.75;;;9.20;99.90;;;;;;4133856;28;20441;-76
2021/03/11 06:27:05;;;;;;;17.13;13.23;;;9.30;99.90;;;;;;4143847;28;20125;-77
2021/03/11 06:29:06;;;;;;;17.48;11.18;;;9.30;99.90;;;;;;4145478;28;20046;-78
2021/03/11 06:31:39;;;;;;;20.00;12.85;;;9.40;99.90;;;;;;4143590;28;20069;-77
2021/03/11 06:33:40;;;;;;;15.63;11.68;;;9.50;99.90;;;;;;4122333;28;20158;-77
2021/03/11 06:35:42;;;;;;;17.90;13.27;;;9.50;99.90;;;;;;4137315;28;20042;-77
2021/03/11 06:37:42;;;;;;;15.27;12.10;;;9.50;99.90;;;;;;4145441;28;20125;-77
2021/03/11 06:39:46;;;;;;;14.07;11.10;;;9.50;99.90;;;;;;4142428;28;20073;-77
2021/03/11 06:41:47;;;;;;;18.27;11.35;;;9.50;99.90;;;;;;4177425;28;20035;-77
2021/03/11 06:43:59;;;;;;;14.30;11.05;;;9.60;99.90;;;;;;4145271;28;20477;-77
2021/03/11 06:46:09;;;;;;;15.45;10.23;;;9.60;99.90;;;;;;4141468;28;20125;-78
2021/03/11 06:48:24;;;;;;;14.55;9.93;;;9.70;99.90;;;;;;4137111;28;20030;-77
2021/03/11 06:50:31;;;;;;;15.90;10.10;;;9.80;99.90;;;;;;4145159;28;20140;-76
2021/03/11 06:52:32;;;;;;;16.02;9.57;;;9.90;99.90;;;;;;4176588;28;20547;-76
2021/03/11 06:54:57;;;;;;;16.40;11.55;;;9.90;99.90;;;;;;4144113;28;20524;-77
2021/03/11 06:56:58;;;;;;;14.27;9.95;;;10.00;99.90;;;;;;4136707;28;20045;-76
2021/03/11 06:59:04;;;;;;;12.57;8.55;;;10.00;99.90;;;;;;4142607;28;20030;-76
2021/03/11 07:01:06;;;;;;;16.40;9.35;;;10.00;99.90;;;;;;4141664;28;20026;-77
2021/03/11 07:03:07;;;;;;;16.08;9.38;;;10.10;99.90;;;;;;4140359;28;20425;-76
2021/03/11 07:05:12;;;;;;;11.73;8.93;;;10.10;99.90;;;;;;4141785;28;20087;-77
2021/03/11 07:07:20;;;;;;;17.30;8.48;;;10.30;99.90;;;;;;4134955;28;20577;-76
2021/03/11 07:09:21;;;;;;;10.20;8.23;;;10.30;99.90;;;;;;4144058;28;20045;-75
2021/03/11 07:11:22;;;;;;;13.02;8.70;;;10.30;99.90;;;;;;4145032;28;20040;-76
2021/03/11 07:13:36;;;;;;;9.65;7.18;;;10.30;99.90;;;;;;4136499;28;20044;-74
2021/03/11 07:15:39;;;;;;;12.88;7.80;;;10.20;99.90;;;;;;4143247;28;20030;-76
2021/03/11 07:17:40;;;;;;;11.00;6.63;;;10.20;99.90;;;;;;4155948;28;20547;-75
2021/03/11 07:19:41;;;;;;;11.32;6.75;;;10.20;99.90;;;;;;4176259;28;20040;-76
2021/03/11 07:21:50;;;;;;;11.30;6.43;;;10.30;99.90;;;;;;4137557;28;20040;-76
2021/03/11 07:23:51;;;;;;;8.27;5.65;;;10.30;99.90;;;;;;4170682;28;20500;-74
2021/03/11 07:25:51;;;;;;;15.77;7.97;;;10.40;99.90;;;;;;4141391;28;20093;-75
2021/03/11 07:27:53;;;;;;;13.02;6.32;;;10.50;99.90;;;;;;4174913;28;20044;-74
2021/03/11 07:30:04;;;;;;;9.73;5.38;;;10.60;99.90;;;;;;4156862;28;20029;-74
2021/03/11 07:32:06;;;;;;;14.60;6.25;;;10.80;99.90;;;;;;4132127;28;20038;-75
2021/03/11 07:34:09;;;;;;;15.00;5.32;;;10.90;99.90;;;;;;4142354;28;20028;-75
2021/03/11 07:36:10;;;;;;;12.27;4.53;;;10.90;99.90;;;;;;4138821;28;20026;-74
2021/03/11 07:38:14;;;;;;;14.10;5.88;;;11.00;99.90;;;;;;4171340;28;20056;-75
2021/03/11 07:40:16;;;;;;;22.95;7.10;;;11.00;99.90;;;;;;4139476;28;20119;-74
2021/03/11 07:42:18;;;;;;;10.57;5.47;;;11.00;99.90;;;;;;4138398;28;20139;-74
2021/03/11 07:44:19;;;;;;;17.30;5.78;;;11.00;99.90;;;;;;4137771;28;20088;-75
2021/03/11 07:46:20;;;;;;;12.15;5.68;;;11.00;99.90;;;;;;4138680;28;20029;-74
2021/03/11 07:48:21;;;;;;;18.45;5.80;;;11.10;99.90;;;;;;4144695;28;20381;-75
2021/03/11 07:50:22;;;;;;;19.98;6.07;;;11.00;99.90;;;;;;4142248;28;20123;-73
2021/03/11 07:52:23;;;;;;;27.00;5.70;;;11.10;99.90;;;;;;4137877;28;20033;-73
2021/03/11 07:54:24;;;;;;;21.85;6.57;;;11.10;99.90;;;;;;4143908;28;20030;-73
2021/03/11 07:56:25;;;;;;;37.53;7.47;;;11.10;99.90;;;;;;4142101;28;20037;-73
2021/03/11 07:58:25;;;;;;;19.83;5.97;;;11.10;99.90;;;;;;4143814;28;20041;-73
2021/03/11 08:00:28;;;;;;;19.95;4.35;;;11.20;99.90;;;;;;4143293;28;20033;-73
2021/03/11 08:02:30;;;;;;;12.75;5.28;;;11.20;99.90;;;;;;4138951;28;20125;-73
2021/03/11 08:04:34;;;;;;;23.05;6.25;;;11.30;99.90;;;;;;4135369;28;20397;-73
2021/03/11 08:06:34;;;;;;;18.80;5.75;;;11.30;99.90;;;;;;4135842;28;20054;-74
2021/03/11 08:08:42;;;;;;;21.33;6.00;;;11.30;99.90;;;;;;4144661;28;20662;-74
2021/03/11 08:11:08;;;;;;;19.23;7.03;;;11.30;99.90;;;;;;4142874;28;20030;-74
2021/03/11 08:13:37;;;;;;;25.83;6.78;;;11.40;99.90;;;;;;4138211;28;20030;-74
2021/03/11 08:15:38;;;;;;;18.40;4.53;;;11.40;99.90;;;;;;4141766;28;20033;-74
2021/03/11 08:17:44;;;;;;;17.63;5.68;;;11.40;99.90;;;;;;4138518;28;20153;-74
2021/03/11 08:19:45;;;;;;;14.73;5.18;;;11.50;99.90;;;;;;4142653;28;20548;-75
2021/03/11 08:21:45;;;;;;;26.15;5.10;;;11.40;99.90;;;;;;4143126;28;20046;-74
2021/03/11 08:23:46;;;;;;;16.77;5.53;;;11.50;99.90;;;;;;4142827;28;20053;-74
2021/03/11 08:25:47;;;;;;;18.95;5.35;;;11.50;99.90;;;;;;4142754;28;20033;-74
2021/03/11 08:27:48;;;;;;;19.00;6.28;;;11.60;99.90;;;;;;4174668;28;20033;-75
2021/03/11 08:29:49;;;;;;;17.15;5.70;;;11.70;99.90;;;;;;4143133;28;20488;-75
2021/03/11 08:31:50;;;;;;;15.13;4.53;;;11.70;99.90;;;;;;4145454;28;20033;-74
2021/03/11 08:33:51;;;;;;;21.27;5.03;;;11.80;99.90;;;;;;4176634;28;20480;-75
2021/03/11 08:35:55;;;;;;;24.77;6.30;;;11.80;99.90;;;;;;4161717;28;20068;-74
2021/03/11 08:37:56;;;;;;;16.73;5.10;;;11.80;99.90;;;;;;4146918;28;20405;-73
2021/03/11 08:39:57;;;;;;;19.80;5.00;;;11.80;99.90;;;;;;4173302;28;20039;-75
2021/03/11 08:41:59;;;;;;;12.50;5.00;;;11.80;99.90;;;;;;4143017;28;20109;-74
2021/03/11 08:44:02;;;;;;;18.65;5.50;;;11.90;99.90;;;;;;4145085;28;20064;-74
2021/03/11 08:46:09;;;;;;;;;;;11.90;99.90;;;;;;4144504;28;20080;-74
2021/03/11 08:48:18;;;;;;;22.60;6.32;;;11.90;99.90;;;;;;4145348;28;19914;-73
2021/03/11 08:50:34;;;;;;;17.05;6.85;;;11.80;99.90;;;;;;4144808;28;20393;-73
2021/03/11 08:52:43;;;;;;;14.15;5.47;;;11.80;99.90;;;;;;4143400;28;20040;-73
2021/03/11 08:54:44;;;;;;;28.42;7.47;;;11.80;99.90;;;;;;4146645;28;20038;-74
2021/03/11 08:56:45;;;;;;;21.20;5.95;;;11.70;99.90;;;;;;4144248;28;20409;-73
2021/03/11 08:59:08;;;;;;;16.30;6.45;;;11.70;99.90;;;;;;4151002;28;20038;-72
2021/03/11 09:01:10;;;;;;;12.50;4.85;;;11.80;99.90;;;;;;4140594;28;20022;-73
2021/03/11 09:03:46;;;;;;;17.63;5.10;;;11.90;99.90;;;;;;4144429;28;20038;-74
2021/03/11 09:05:47;;;;;;;22.23;7.32;;;11.90;99.90;;;;;;4174518;28;20463;-74
2021/03/11 09:08:09;;;;;;;27.63;7.55;;;11.80;99.90;;;;;;4141223;28;20030;-73
2021/03/11 09:10:19;;;;;;;24.52;6.85;;;11.80;99.90;;;;;;4141203;28;20405;-74
2021/03/11 09:12:38;;;;;;;24.70;8.35;;;11.80;99.90;;;;;;4146480;28;20034;-75
2021/03/11 09:14:43;;;;;;;33.17;7.75;;;12.00;99.90;;;;;;4175806;28;20040;-75
2021/03/11 09:16:44;;;;;;;26.90;8.35;;;12.00;99.90;;;;;;4144563;28;20404;-75
2021/03/11 09:18:45;;;;;;;28.52;8.40;;;12.10;99.90;;;;;;4172789;28;20053;-74
2021/03/11 09:20:52;;;;;;;28.85;8.95;;;12.10;99.90;;;;;;4143462;28;20045;-74
2021/03/11 09:22:53;;;;;;;32.22;7.65;;;12.20;99.90;;;;;;4146226;28;20141;-75
2021/03/11 09:25:10;;;;;;;26.95;7.43;;;12.20;99.90;;;;;;4140958;28;20045;-75
2021/03/11 09:27:14;;;;;;;33.85;9.60;;;12.20;99.90;;;;;;4141519;28;20040;-74
2021/03/11 09:29:16;;;;;;;25.17;7.18;;;12.20;99.90;;;;;;4135611;28;20038;-74
2021/03/11 09:31:25;;;;;;;34.05;8.82;;;12.10;99.90;;;;;;4141061;28;20035;-75
2021/03/11 09:33:26;;;;;;;37.83;8.70;;;12.10;99.90;;;;;;4143290;28;20034;-75
2021/03/11 09:35:27;;;;;;;31.50;9.20;;;12.10;99.90;;;;;;4139247;28;20442;-77
2021/03/11 09:37:51;;;;;;;36.95;7.28;;;12.10;99.90;;;;;;4143698;28;20030;-75
2021/03/11 09:39:58;;;;;;;;;;;12.10;99.90;;;;;;4099531;28;20106;-75
2021/03/11 09:42:08;;;;;;;31.63;8.38;;;12.10;99.90;;;;;;4108924;28;19921;-75
2021/03/11 09:44:09;;;;;;;25.23;7.93;;;12.10;99.90;;;;;;4110959;28;20393;-74
2021/03/11 09:46:11;;;;;;;38.05;8.65;;;12.20;99.90;;;;;;4109441;28;20117;-74
2021/03/11 09:48:16;;;;;;;24.05;8.32;;;12.30;99.90;;;;;;4115187;28;20092;-73
2021/03/11 09:50:18;;;;;;;26.95;8.02;;;12.20;99.90;;;;;;4112976;28;20394;-74
2021/03/11 09:52:19;;;;;;;26.77;7.57;;;12.20;99.90;;;;;;4143588;28;20475;-72
2021/03/11 09:54:20;;;;;;;32.30;8.70;;;12.10;99.90;;;;;;4112073;28;20089;-74
2021/03/11 09:56:21;;;;;;;32.15;9.15;;;12.10;99.90;;;;;;4112701;28;20030;-73
2021/03/11 09:58:23;;;;;;;34.00;8.38;;;11.90;99.90;;;;;;4113693;28;20027;-73
2021/03/11 10:00:24;;;;;;;37.88;9.05;;;11.80;99.90;;;;;;4108682;28;20054;-73
2021/03/11 10:02:24;;;;;;;24.35;7.75;;;11.70;99.90;;;;;;4104403;28;20054;-72
2021/03/11 10:04:29;;;;;;;21.45;7.22;;;11.60;99.90;;;;;;4110608;28;20027;-73
2021/03/11 10:06:30;;;;;;;32.40;7.20;;;11.70;99.90;;;;;;4111926;28;20560;-73
2021/03/11 10:08:39;;;;;;;36.28;10.68;;;11.70;99.90;;;;;;4140224;28;20030;-73
2021/03/11 10:10:41;;;;;;;29.45;7.82;;;11.80;99.90;;;;;;4111908;28;20121;-73
2021/03/11 10:12:42;;;;;;;31.13;7.65;;;11.80;99.90;;;;;;4112117;28;20070;-73
2021/03/11 10:14:43;;;;;;;21.83;6.72;;;11.80;99.90;;;;;;4110768;28;20142;-72
2021/03/11 10:16:47;;;;;;;27.63;7.30;;;11.80;99.90;;;;;;4111580;28;20113;-73
2021/03/11 10:19:08;;;;;;;27.02;6.88;;;11.80;99.90;;;;;;4106968;28;20599;-75
2021/03/11 10:21:09;;;;;;;25.52;9.02;;;11.80;99.90;;;;;;4104560;28;20027;-74
2021/03/11 10:23:17;;;;;;;22.98;6.95;;;11.70;99.90;;;;;;4143218;28;20568;-74
2021/03/11 10:25:18;;;;;;;26.67;7.45;;;11.70;99.90;;;;;;4111270;28;20042;-74
2021/03/11 10:27:48;;;;;;;35.25;7.57;;;11.80;99.90;;;;;;4110958;28;20118;-73
2021/03/11 10:30:27;;;;;;;36.28;9.52;;;11.80;99.90;;;;;;4116872;28;20039;-73
2021/03/11 10:32:27;;;;;;;23.73;7.22;;;11.80;99.90;;;;;;4134997;28;20034;-74
2021/03/11 10:34:28;;;;;;;26.63;7.55;;;11.80;99.90;;;;;;4111879;28;20060;-73
2021/03/11 10:36:29;;;;;;;35.70;8.80;;;11.80;99.90;;;;;;4107850;28;20042;-73